createdAt,value
2018-08-13T00:01:51.894Z,97865.55
2018-08-13T00:04:21.081Z,97860.75
2018-08-13T00:06:50.405Z,97850.09
2018-08-13T00:09:24.748Z,97856.72
2018-08-13T00:11:54.098Z,97852.14
2018-08-13T00:14:23.545Z,97846.41
2018-08-13T00:16:52.913Z,97842.27
2018-08-13T00:19:22.140Z,97835.87
2018-08-13T00:21:51.417Z,97828.69
2018-08-13T00:24:20.645Z,97838.17
2018-08-13T00:26:49.891Z,97842.17
2018-08-13T00:29:19.054Z,97837.37
2018-08-13T00:31:48.290Z,97834.86
2018-08-13T00:34:17.458Z,97831.84
2018-08-13T00:36:46.925Z,97822.86
2018-08-13T00:39:16.051Z,97819.44
2018-08-13T00:41:45.398Z,97823.88
2018-08-13T00:44:14.897Z,97818.77
2018-08-13T00:46:44.216Z,97821.27
2018-08-13T00:49:13.437Z,97816.98
2018-08-13T00:51:42.684Z,97811.61
2018-08-13T00:54:11.957Z,97812.59
2018-08-13T00:56:41.266Z,97811.92
2018-08-13T00:59:10.660Z,97814.28
2018-08-13T01:01:39.893Z,97809.67
2018-08-13T01:04:09.160Z,97809.22
2018-08-13T01:06:38.514Z,97802.22
2018-08-13T01:09:09.578Z,97807.98
2018-08-13T01:11:39.860Z,97808.08
2018-08-13T01:14:09.247Z,97800.72
2018-08-13T01:16:38.627Z,97805.42
2018-08-13T01:19:08.120Z,97805.93
2018-08-13T01:21:43.813Z,97804.63
2018-08-13T01:24:14.103Z,97800.14
2018-08-13T01:26:43.384Z,97794.12
2018-08-13T01:29:12.823Z,97786.83
2018-08-13T01:31:42.167Z,97777.61
2018-08-13T01:34:11.558Z,97768.72
2018-08-13T01:36:40.841Z,97769.23
2018-08-13T01:39:11.110Z,97765.70
2018-08-13T01:41:40.520Z,97763.86
2018-08-13T01:44:09.757Z,97756.23
2018-08-13T01:46:39.118Z,97753.14
2018-08-13T01:49:08.562Z,97751.76
2018-08-13T01:51:37.846Z,97752.11
2018-08-13T01:54:07.213Z,97750.87
2018-08-13T01:56:36.665Z,97751.11
2018-08-13T01:59:05.844Z,97745.44
2018-08-13T02:01:35.225Z,97750.44
2018-08-13T02:04:04.630Z,97749.05
2018-08-13T02:06:33.984Z,97753.10
2018-08-13T02:09:03.716Z,97765.51
2018-08-13T02:11:33.102Z,97758.38
2018-08-13T02:14:02.336Z,97751.61
2018-08-13T02:16:31.702Z,97745.78
2018-08-13T02:19:00.999Z,97743.75
2018-08-13T02:21:30.260Z,97751.84
2018-08-13T02:23:59.577Z,97752.28
2018-08-13T02:26:28.969Z,97749.33
2018-08-13T02:28:58.365Z,97752.27
2018-08-13T02:31:27.574Z,97750.15
2018-08-13T02:33:56.745Z,97756.10
2018-08-13T02:36:26.062Z,97746.29
2018-08-13T02:38:55.331Z,97738.55
2018-08-13T02:41:24.693Z,97734.06
2018-08-13T02:43:53.999Z,97733.04
2018-08-13T02:46:23.201Z,97731.72
2018-08-13T02:48:53.318Z,97729.47
2018-08-13T02:51:22.541Z,97725.73
2018-08-13T02:53:51.802Z,97721.08
2018-08-13T02:56:21.060Z,97723.52
2018-08-13T02:58:50.642Z,97728.52
2018-08-13T03:01:19.872Z,97728.08
2018-08-13T03:03:49.205Z,97727.13
2018-08-13T03:06:18.371Z,97723.66
2018-08-13T03:08:47.621Z,97718.67
2018-08-13T03:11:16.865Z,97719.89
2018-08-13T03:13:46.187Z,97713.27
2018-08-13T03:16:15.626Z,97718.56
2018-08-13T03:18:44.814Z,97709.53
2018-08-13T03:21:14.011Z,97711.70
2018-08-13T03:23:43.485Z,97719.72
2018-08-13T03:26:12.740Z,97713.44
2018-08-13T03:28:42.005Z,97715.06
2018-08-13T03:31:11.154Z,97714.17
2018-08-13T03:33:40.473Z,97707.13
2018-08-13T03:36:09.835Z,97714.34
2018-08-13T03:38:39.102Z,97707.73
2018-08-13T03:41:08.332Z,97703.66
2018-08-13T03:43:37.671Z,97705.42
2018-08-13T03:46:06.862Z,97711.73
2018-08-13T03:48:36.169Z,97713.16
2018-08-13T03:51:05.535Z,97714.69
2018-08-13T03:53:35.795Z,97710.57
2018-08-13T03:56:05.496Z,97711.02
2018-08-13T03:58:34.908Z,97704.77
2018-08-13T04:01:04.581Z,97709.31
2018-08-13T04:03:36.901Z,97712.53
2018-08-13T04:06:07.098Z,97727.39
2018-08-13T04:08:36.292Z,97719.59
2018-08-13T04:11:05.668Z,97720.78
2018-08-13T04:13:34.965Z,97716.00
2018-08-13T04:16:04.164Z,97717.42
2018-08-13T04:18:33.408Z,97723.61
2018-08-13T04:21:02.695Z,97718.39
2018-08-13T04:23:32.182Z,97713.86
2018-08-13T04:26:01.385Z,97700.70
2018-08-13T04:28:30.598Z,97708.13
2018-08-13T04:30:59.870Z,97706.60
2018-08-13T04:33:29.062Z,97698.79
2018-08-13T04:35:58.285Z,97703.33
2018-08-13T04:38:27.793Z,97707.20
2018-08-13T04:40:57.065Z,97697.67
2018-08-13T04:43:26.253Z,97700.28
2018-08-13T04:45:55.557Z,97701.64
2018-08-13T04:48:24.785Z,97694.81
2018-08-13T04:50:53.953Z,97696.97
2018-08-13T04:53:23.202Z,97697.45
2018-08-13T04:55:52.317Z,97693.42
2018-08-13T04:58:21.691Z,97699.50
2018-08-13T05:00:50.846Z,97691.55
2018-08-13T05:03:20.001Z,97691.45
2018-08-13T05:05:49.200Z,97699.86
2018-08-13T05:08:18.605Z,97697.20
2018-08-13T05:10:47.840Z,97696.20
2018-08-13T05:13:17.168Z,97691.20
2018-08-13T05:15:46.418Z,97680.02
2018-08-13T05:18:15.733Z,97674.55
2018-08-13T05:20:45.089Z,97670.45
2018-08-13T05:23:14.541Z,97667.80
2018-08-13T05:25:44.963Z,97662.95
2018-08-13T05:28:16.221Z,97660.88
2018-08-13T05:30:45.402Z,97668.78
2018-08-13T05:33:15.736Z,97664.41
2018-08-13T05:35:45.034Z,97651.31
2018-08-13T05:38:14.601Z,97652.72
2018-08-13T05:40:43.992Z,97650.20
2018-08-13T05:43:13.471Z,97647.22
2018-08-13T05:45:42.768Z,97649.14
2018-08-13T05:48:12.036Z,97661.41
2018-08-13T05:50:41.267Z,97648.30
2018-08-13T05:53:10.532Z,97641.72
2018-08-13T05:55:39.770Z,97655.29
2018-08-13T05:58:09.173Z,97643.02
2018-08-13T06:00:38.583Z,97642.49
2018-08-13T06:03:07.907Z,97645.36
2018-08-13T06:05:37.163Z,97637.41
2018-08-13T06:08:06.633Z,97638.45
2018-08-13T06:10:35.954Z,97634.58
2018-08-13T06:13:05.277Z,97633.77
2018-08-13T06:15:34.573Z,97632.15
2018-08-13T06:18:04.087Z,97623.39
2018-08-13T06:20:33.653Z,97625.02
2018-08-13T06:23:03.931Z,97611.81
2018-08-13T06:25:33.047Z,97613.66
2018-08-13T06:28:02.278Z,97605.91
2018-08-13T06:30:31.480Z,97608.33
2018-08-13T06:33:00.699Z,97612.36
2018-08-13T06:35:29.878Z,97610.88
2018-08-13T06:37:59.085Z,97616.33
2018-08-13T06:40:28.263Z,97613.20
2018-08-13T06:42:58.751Z,97617.04
2018-08-13T06:45:27.913Z,97611.09
2018-08-13T06:47:57.711Z,97609.80
2018-08-13T06:50:27.118Z,97602.69
2018-08-13T06:52:56.477Z,97590.95
2018-08-13T06:55:25.890Z,97598.20
2018-08-13T06:57:55.209Z,97604.36
2018-08-13T07:00:24.559Z,97614.81
2018-08-13T07:02:53.709Z,97622.89
2018-08-13T07:05:23.514Z,97612.22
2018-08-13T07:07:54.034Z,97609.30
2018-08-13T07:10:23.393Z,97610.91
2018-08-13T07:12:52.578Z,97607.41
2018-08-13T07:15:21.697Z,97611.67
2018-08-13T07:17:50.844Z,97603.05
2018-08-13T07:20:20.172Z,97601.88
2018-08-13T07:22:49.359Z,97607.49
2018-08-13T07:25:18.636Z,97598.25
2018-08-13T07:27:47.999Z,97601.31
2018-08-13T07:30:17.212Z,97600.69
2018-08-13T07:32:46.690Z,97600.34
2018-08-13T07:35:15.829Z,97596.95
2018-08-13T07:37:45.263Z,97599.22
2018-08-13T07:40:16.159Z,97601.41
2018-08-13T07:42:45.725Z,97602.30
2018-08-13T07:45:14.890Z,97602.68
2018-08-13T07:47:44.326Z,97600.09
2018-08-13T07:50:15.175Z,97604.64
2018-08-13T07:52:44.317Z,97604.67
2018-08-13T07:55:13.857Z,97599.87
2018-08-13T07:57:43.131Z,97600.95
2018-08-13T08:00:17.374Z,97596.42
2018-08-13T08:02:46.850Z,97604.26
2018-08-13T08:05:16.604Z,97605.53
2018-08-13T08:07:46.057Z,97613.29
2018-08-13T08:10:16.812Z,97626.05
2018-08-13T08:12:46.098Z,97651.52
2018-08-13T08:15:17.693Z,97668.13
2018-08-13T08:17:48.019Z,97737.59
2018-08-13T08:20:17.138Z,97806.44
2018-08-13T08:22:46.277Z,97778.70
2018-08-13T08:25:17.525Z,97794.83
2018-08-13T08:27:46.918Z,97780.86
2018-08-13T08:30:16.103Z,97790.46
2018-08-13T08:32:45.334Z,97781.63
2018-08-13T08:35:15.854Z,97791.25
2018-08-13T08:37:45.177Z,97786.86
2018-08-13T08:40:17.686Z,97799.00
2018-08-13T08:42:47.121Z,97796.97
2018-08-13T08:45:25.123Z,97795.04
2018-08-13T08:47:55.050Z,97787.42
2018-08-13T08:50:24.338Z,97787.53
2018-08-13T08:52:53.704Z,97796.42
2018-08-13T08:55:22.952Z,97779.55
2018-08-13T08:57:52.187Z,97794.36
2018-08-13T09:00:24.519Z,97789.27
2018-08-13T09:02:53.844Z,97789.76
2018-08-13T09:05:23.189Z,97796.60
2018-08-13T09:07:52.332Z,97809.17
2018-08-13T09:10:21.613Z,97803.48
2018-08-13T09:12:51.025Z,97814.48
2018-08-13T09:15:20.246Z,97811.27
2018-08-13T09:18:04.515Z,97804.53
2018-08-13T09:20:45.038Z,97801.95
2018-08-13T09:23:25.740Z,97812.31
2018-08-13T09:26:06.276Z,97792.28
2018-08-13T09:28:46.973Z,97801.66
2018-08-13T09:31:32.238Z,97796.16
2018-08-13T09:34:29.565Z,97791.53
2018-08-13T09:36:58.898Z,97785.20
2018-08-13T09:39:28.098Z,97772.63
2018-08-13T09:41:57.297Z,97767.05
2018-08-13T09:44:26.430Z,97762.76
2018-08-13T09:46:55.669Z,97761.45
2018-08-13T09:49:24.956Z,97757.98
2018-08-13T09:51:54.597Z,97719.84
2018-08-13T09:54:23.799Z,97766.34
2018-08-13T09:56:53.258Z,97751.41
2018-08-13T09:59:22.678Z,97748.85
2018-08-13T10:01:51.782Z,97744.78
2018-08-13T10:04:20.995Z,97753.10
2018-08-13T10:06:52.249Z,97757.50
2018-08-13T10:12:21.085Z,97763.91
2018-08-13T10:14:50.348Z,97762.89
2018-08-13T10:17:20.257Z,97773.31
2018-08-13T10:19:49.558Z,97760.13
2018-08-13T10:22:18.858Z,97761.88
2018-08-13T10:24:48.281Z,97768.30
2018-08-13T10:27:17.543Z,97769.67
2018-08-13T10:29:46.936Z,97782.83
2018-08-13T10:32:17.154Z,97804.66
2018-08-13T10:34:46.413Z,97812.84
2018-08-13T10:37:15.693Z,97798.59
2018-08-13T10:39:45.970Z,97809.38
2018-08-13T10:42:15.413Z,97811.86
2018-08-13T10:44:44.659Z,97801.36
2018-08-13T10:47:14.099Z,97803.98
2018-08-13T10:49:43.409Z,97789.44
2018-08-13T10:52:13.618Z,97773.89
2018-08-13T10:54:42.978Z,97761.98
2018-08-13T10:57:12.217Z,97765.77
2018-08-13T10:59:42.140Z,97764.47
2018-08-13T11:02:11.427Z,97754.36
2018-08-13T11:04:40.951Z,97760.08
2018-08-13T11:07:10.261Z,97766.70
2018-08-13T11:09:39.504Z,97783.98
2018-08-13T11:12:08.790Z,97785.30
2018-08-13T11:14:38.069Z,97779.22
2018-08-13T11:17:07.528Z,97753.08
2018-08-13T11:19:36.753Z,97743.19
2018-08-13T11:22:06.356Z,97745.16
2018-08-13T11:24:35.526Z,97761.84
2018-08-13T11:27:05.604Z,97766.20
2018-08-13T11:29:35.041Z,97760.05
2018-08-13T11:32:04.250Z,97756.31
2018-08-13T11:34:33.331Z,97756.52
2018-08-13T11:37:02.483Z,97738.45
2018-08-13T11:39:31.670Z,97721.36
2018-08-13T11:42:00.825Z,97728.91
2018-08-13T11:44:30.078Z,97741.32
2018-08-13T11:46:59.249Z,97753.10
2018-08-13T11:49:28.565Z,97759.20
2018-08-13T11:51:57.830Z,97762.70
2018-08-13T11:54:27.201Z,97761.44
2018-08-13T11:56:56.253Z,97762.25
2018-08-13T11:59:25.577Z,97757.59
2018-08-13T12:01:54.827Z,97747.63
2018-08-13T12:04:24.000Z,97749.03
2018-08-13T12:06:53.102Z,97743.48
2018-08-13T12:09:22.249Z,97747.80
2018-08-13T12:11:51.515Z,97741.19
2018-08-13T12:14:20.742Z,97748.41
2018-08-13T12:16:49.868Z,97751.62
2018-08-13T12:19:19.258Z,97755.55
2018-08-13T12:21:48.509Z,97747.55
2018-08-13T12:24:17.698Z,97748.69
2018-08-13T12:26:46.877Z,97753.63
2018-08-13T12:29:16.023Z,97777.48
2018-08-13T12:31:45.289Z,97756.12
2018-08-13T12:34:14.507Z,97756.48
2018-08-13T12:36:43.553Z,97759.27
2018-08-13T12:39:13.153Z,97760.45
2018-08-13T12:41:42.273Z,97761.03
2018-08-13T12:44:11.613Z,97755.95
2018-08-13T12:46:40.881Z,97748.41
2018-08-13T12:49:10.022Z,97750.80
2018-08-13T12:51:45.846Z,97741.96
2018-08-13T12:54:15.009Z,97739.48
2018-08-13T12:56:44.218Z,97739.33
2018-08-13T12:59:13.429Z,97743.09
2018-08-13T13:01:42.491Z,97733.20
2018-08-13T13:04:11.658Z,97712.05
2018-08-13T13:06:40.873Z,97712.27
2018-08-13T13:09:11.823Z,97708.29
2018-08-13T13:11:41.441Z,97719.37
2018-08-13T13:14:11.140Z,97711.67
2018-08-13T13:16:40.365Z,97711.95
2018-08-13T13:19:09.601Z,97707.91
2018-08-13T13:21:38.830Z,97719.98
2018-08-13T13:24:08.198Z,97713.31
2018-08-13T13:26:37.440Z,97706.03
2018-08-13T13:29:06.918Z,97701.17
2018-08-13T13:31:36.146Z,97702.00
2018-08-13T13:34:05.478Z,97698.17
2018-08-13T13:36:34.662Z,97688.79
2018-08-13T13:39:07.507Z,97683.59
2018-08-13T13:41:36.722Z,97689.28
2018-08-13T13:44:06.180Z,97683.63
2018-08-13T13:46:35.513Z,97675.56
2018-08-13T13:49:04.919Z,97666.47
2018-08-13T13:51:34.257Z,97663.30
2018-08-13T13:54:03.546Z,97665.70
2018-08-13T13:56:32.885Z,97653.45
2018-08-13T13:59:02.145Z,97648.25
2018-08-13T14:01:32.102Z,97658.74
2018-08-13T14:04:01.369Z,97654.27
2018-08-13T14:06:31.113Z,97647.30
2018-08-13T14:09:00.597Z,97651.86
2018-08-13T14:11:30.050Z,97654.78
2018-08-13T14:13:59.413Z,97650.23
2018-08-13T14:16:28.791Z,97647.58
2018-08-13T14:18:58.149Z,97647.81
2018-08-13T14:21:27.389Z,97639.66
2018-08-13T14:23:56.941Z,97643.78
2018-08-13T14:26:27.250Z,97634.03
2018-08-13T14:28:56.588Z,97632.95
2018-08-13T14:31:26.037Z,97635.11
2018-08-13T14:33:55.199Z,97629.26
2018-08-13T14:36:24.669Z,97626.06
2018-08-13T14:38:53.912Z,97623.41
2018-08-13T14:41:23.353Z,97623.89
2018-08-13T14:43:52.741Z,97627.05
2018-08-13T14:46:21.995Z,97625.97
2018-08-13T14:48:51.382Z,97639.18
2018-08-13T14:51:20.609Z,97630.95
2018-08-13T14:53:49.866Z,97619.14
2018-08-13T14:56:19.131Z,97628.32
2018-08-13T14:58:48.436Z,97627.90
2018-08-13T15:01:17.737Z,97621.69
2018-08-13T15:03:46.933Z,97623.38
2018-08-13T15:06:16.329Z,97629.99
2018-08-13T15:08:45.570Z,97635.14
2018-08-13T15:11:14.936Z,97635.44
2018-08-13T15:13:44.358Z,97620.14
2018-08-13T15:16:13.616Z,97627.64
2018-08-13T15:18:47.296Z,97622.77
2018-08-13T15:21:16.781Z,97631.09
2018-08-13T15:23:46.118Z,97619.52
2018-08-13T15:26:15.454Z,97616.98
2018-08-13T15:28:44.719Z,97609.96
2018-08-13T15:31:14.077Z,97603.86
2018-08-13T15:33:43.389Z,97609.69
2018-08-13T15:36:12.793Z,97606.52
2018-08-13T15:38:41.981Z,97603.47
2018-08-13T15:41:11.173Z,97597.64
2018-08-13T15:43:40.440Z,97568.25
2018-08-13T15:46:09.969Z,97597.64
2018-08-13T15:48:39.280Z,97601.81
2018-08-13T15:51:08.614Z,97601.81
2018-08-13T15:53:37.713Z,97584.34
2018-08-13T15:56:07.042Z,97590.45
2018-08-13T15:58:36.237Z,97583.88
2018-08-13T16:01:05.697Z,97583.58
2018-08-13T16:03:35.069Z,97432.61
2018-08-13T16:06:04.417Z,97581.16
2018-08-13T16:08:33.846Z,97577.70
2018-08-13T16:11:03.359Z,97574.34
2018-08-13T16:13:32.661Z,97572.93
2018-08-13T16:16:10.623Z,97580.34
2018-08-13T16:18:39.992Z,97587.81
2018-08-13T16:21:10.133Z,97577.05
2018-08-13T16:23:40.495Z,97581.66
2018-08-13T16:26:09.701Z,97592.06
2018-08-13T16:28:38.869Z,97584.16
2018-08-13T16:31:08.070Z,97580.36
2018-08-13T16:33:37.140Z,97575.06
2018-08-13T16:36:06.526Z,97576.98
2018-08-13T16:38:35.752Z,97585.16
2018-08-13T16:41:05.130Z,97572.23
2018-08-13T16:43:34.281Z,97566.34
2018-08-13T16:46:03.609Z,97562.37
2018-08-13T16:48:32.892Z,97569.94
2018-08-13T16:51:02.217Z,97571.02
2018-08-13T16:53:31.720Z,97569.36
2018-08-13T16:56:01.114Z,97571.20
2018-08-13T16:58:30.301Z,97570.59
2018-08-13T17:00:59.574Z,97572.57
2018-08-13T17:03:28.680Z,97578.41
2018-08-13T17:05:57.989Z,97573.88
2018-08-13T17:08:27.275Z,97569.91
2018-08-13T17:10:57.289Z,97570.47
2018-08-13T17:13:26.636Z,97567.05
2018-08-13T17:15:56.047Z,97557.54
2018-08-13T17:18:25.419Z,97548.45
2018-08-13T17:20:54.590Z,97558.80
2018-08-13T17:23:23.865Z,97550.69
2018-08-13T17:25:53.098Z,97550.23
2018-08-13T17:28:22.537Z,97555.05
2018-08-13T17:30:51.858Z,97562.94
2018-08-13T17:33:21.286Z,97576.07
2018-08-13T17:35:51.588Z,97567.92
2018-08-13T17:38:20.821Z,97572.06
2018-08-13T17:40:50.145Z,97580.50
2018-08-13T17:43:19.396Z,97575.81
2018-08-13T17:45:49.681Z,97574.62
2018-08-13T17:48:19.143Z,97575.19
2018-08-13T17:50:48.461Z,97579.22
2018-08-13T17:53:17.922Z,97587.89
2018-08-13T17:55:47.252Z,97582.39
2018-08-13T17:58:16.541Z,97588.25
2018-08-13T18:00:45.730Z,97586.60
2018-08-13T18:03:15.049Z,97588.83
2018-08-13T18:05:44.316Z,97588.22
2018-08-13T18:08:19.932Z,97584.49
2018-08-13T18:10:49.289Z,97580.22
2018-08-13T18:13:18.835Z,97587.43
2018-08-13T18:15:48.237Z,97587.09
2018-08-13T18:18:17.601Z,97582.33
2018-08-13T18:20:46.876Z,97584.20
2018-08-13T18:23:16.119Z,97585.30
2018-08-13T18:25:45.390Z,97584.68
2018-08-13T18:28:14.705Z,97577.90
2018-08-13T18:30:43.865Z,97578.61
2018-08-13T18:33:13.305Z,97575.92
2018-08-13T18:35:42.570Z,97574.27
2018-08-13T18:38:12.005Z,97576.47
2018-08-13T18:40:41.151Z,97578.64
2018-08-13T18:43:10.637Z,97580.78
2018-08-13T18:45:39.754Z,97584.26
2018-08-13T18:48:09.142Z,97586.11
2018-08-13T18:50:38.564Z,97591.80
2018-08-13T18:53:08.042Z,97594.42
2018-08-13T18:55:37.348Z,97595.81
2018-08-13T18:58:06.714Z,97603.84
2018-08-13T19:00:35.999Z,97605.19
2018-08-13T19:03:05.830Z,97610.55
2018-08-13T19:05:35.586Z,97622.61
2018-08-13T19:08:04.961Z,97628.80
2018-08-13T19:10:34.354Z,97629.08
2018-08-13T19:13:03.645Z,97627.48
2018-08-13T19:15:32.924Z,97627.49
2018-08-13T19:18:02.148Z,97623.22
2018-08-13T19:20:31.495Z,97624.53
2018-08-13T19:23:00.948Z,97619.98
2018-08-13T19:25:30.229Z,97624.55
2018-08-13T19:27:59.525Z,97621.88
2018-08-13T19:30:28.838Z,97623.75
2018-08-13T19:32:58.282Z,97630.17
2018-08-13T19:35:27.628Z,97629.38
2018-08-13T19:37:57.061Z,97636.62
2018-08-13T19:40:27.205Z,97626.70
2018-08-13T19:42:56.543Z,97530.72
2018-08-13T19:45:25.999Z,97632.78
2018-08-13T19:47:55.261Z,97642.16
2018-08-13T19:50:24.481Z,97650.70
2018-08-13T19:52:53.744Z,97653.63
2018-08-13T19:55:23.303Z,97660.03
2018-08-13T19:57:52.859Z,97660.00
2018-08-13T20:00:25.652Z,97659.48
2018-08-13T20:02:55.190Z,97662.43
2018-08-13T20:05:25.566Z,97670.71
2018-08-13T20:07:55.643Z,97677.69
2018-08-13T20:10:24.893Z,97690.02
2018-08-13T20:12:54.535Z,97686.23
2018-08-13T20:15:24.124Z,97689.16
2018-08-13T20:17:53.517Z,97715.16
2018-08-13T20:20:22.709Z,97747.70
2018-08-13T20:22:51.980Z,97754.47
2018-08-13T20:25:21.697Z,97765.38
2018-08-13T20:27:51.391Z,97763.27
2018-08-13T20:30:22.122Z,97766.04
2018-08-13T20:32:52.388Z,97761.52
2018-08-13T20:35:21.677Z,97754.30
2018-08-13T20:37:50.860Z,97749.28
2018-08-13T20:40:21.117Z,97749.66
2018-08-13T20:42:50.805Z,97749.67
2018-08-13T20:45:21.242Z,97748.41
2018-08-13T20:47:50.597Z,97747.09
2018-08-13T20:50:21.109Z,97740.83
2018-08-13T20:52:51.689Z,97608.91
2018-08-13T20:55:23.498Z,97745.98
2018-08-13T20:57:52.643Z,97744.30
2018-08-13T21:00:23.613Z,97741.94
2018-08-13T21:02:52.843Z,97747.93
2018-08-13T21:05:22.108Z,97751.50
2018-08-13T21:07:51.581Z,97755.39
2018-08-13T21:10:23.370Z,97754.50
2018-08-13T21:12:52.612Z,97751.70
2018-08-13T21:15:21.847Z,97749.66
2018-08-13T21:17:51.109Z,97744.21
2018-08-13T21:20:24.003Z,97740.97
2018-08-13T21:22:53.418Z,97740.52
2018-08-13T21:25:22.556Z,97740.69
2018-08-13T21:27:51.700Z,97743.64
2018-08-13T21:30:21.046Z,97744.64
2018-08-13T21:32:50.214Z,97740.59
2018-08-13T21:35:21.522Z,97737.11
2018-08-13T21:37:50.952Z,97734.29
2018-08-13T21:40:20.075Z,97741.61
2018-08-13T21:42:50.174Z,97741.17
2018-08-13T21:45:19.406Z,97742.39
2018-08-13T21:47:48.762Z,97741.09
2018-08-13T21:50:20.292Z,97736.58
2018-08-13T21:52:50.148Z,97735.91
2018-08-13T21:55:19.642Z,97739.12
2018-08-13T21:57:48.969Z,97738.59
2018-08-13T22:00:30.560Z,97738.08
2018-08-13T22:03:01.682Z,97743.11
2018-08-13T22:05:31.061Z,97736.97
2018-08-13T22:08:00.561Z,97740.91
2018-08-13T22:10:29.785Z,97741.03
2018-08-13T22:12:59.085Z,97738.63
2018-08-13T22:15:31.403Z,97744.91
2018-08-13T22:18:03.413Z,97748.22
2018-08-13T22:20:35.092Z,97754.23
2018-08-13T22:23:07.312Z,97756.39
2018-08-13T22:25:43.294Z,97758.74
2018-08-13T22:28:15.057Z,97755.69
2018-08-13T22:30:44.467Z,97754.72
2018-08-13T22:33:13.741Z,97753.90
2018-08-13T22:35:43.036Z,97755.59
2018-08-13T22:38:12.327Z,97756.84
2018-08-13T22:40:41.991Z,97754.53
2018-08-13T22:43:11.449Z,97753.14
2018-08-13T22:45:40.751Z,97755.59
2018-08-13T22:48:10.155Z,97755.00
2018-08-13T22:50:39.736Z,97756.43
2018-08-13T22:53:09.075Z,97759.13
2018-08-13T22:55:38.316Z,97761.86
2018-08-13T22:58:07.693Z,97761.34
2018-08-13T23:00:36.903Z,97756.20
2018-08-13T23:03:06.535Z,97762.58
2018-08-13T23:05:35.866Z,97760.23
2018-08-13T23:08:05.270Z,97767.05
2018-08-13T23:10:34.566Z,97768.99
2018-08-13T23:13:03.863Z,97772.84
2018-08-13T23:15:33.243Z,97768.47
2018-08-13T23:18:02.557Z,97778.38
2018-08-13T23:20:32.000Z,97776.01
2018-08-13T23:23:03.211Z,97773.64
2018-08-13T23:25:34.201Z,97778.97
2018-08-13T23:28:04.622Z,97787.66
2018-08-13T23:30:33.986Z,97786.04
2018-08-13T23:33:03.321Z,97793.62
2018-08-13T23:35:32.798Z,97793.55
2018-08-13T23:38:02.186Z,97794.77
2018-08-13T23:40:31.589Z,97791.22
2018-08-13T23:43:01.138Z,97800.57
2018-08-13T23:45:31.725Z,97791.81
2018-08-13T23:48:01.991Z,97796.84
2018-08-13T23:50:31.272Z,97802.27
2018-08-13T23:53:01.744Z,97800.27
2018-08-13T23:55:36.265Z,97799.97
2018-08-13T23:58:08.897Z,97799.25
